createdAt,value
2023-04-10T00:00:56.975Z,87.43
2023-04-10T00:03:25.152Z,92.63
2023-04-10T00:05:54.758Z,91.10
2023-04-10T00:08:24.181Z,93.90
2023-04-10T00:10:51.922Z,92.00
2023-04-10T00:13:19.640Z,88.30
2023-04-10T00:15:47.396Z,91.37
2023-04-10T00:18:15.438Z,94.57
2023-04-10T00:20:43.809Z,91.07
2023-04-10T00:23:11.502Z,90.90
2023-04-10T00:25:40.617Z,89.87
2023-04-10T00:28:08.386Z,90.33
2023-04-10T00:30:36.125Z,93.97
2023-04-10T00:33:03.991Z,88.93
2023-04-10T00:35:31.845Z,87.87
2023-04-10T00:37:59.624Z,93.80
2023-04-10T00:40:27.476Z,91.60
2023-04-10T00:42:56.510Z,97.77
2023-04-10T00:45:24.398Z,92.73
2023-04-10T00:47:52.763Z,89.63
2023-04-10T00:50:21.132Z,95.17
2023-04-10T00:52:49.336Z,89.57
2023-04-10T00:55:17.166Z,96.57
2023-04-10T00:57:47.113Z,90.33
2023-04-10T01:00:17.482Z,93.50
2023-04-10T01:02:45.549Z,94.10
2023-04-10T01:05:13.887Z,94.37
2023-04-10T01:07:53.789Z,91.10
2023-04-10T01:10:28.540Z,100.83
2023-04-10T01:13:05.574Z,96.13
2023-04-10T01:15:40.199Z,101.67
2023-04-10T01:18:12.540Z,94.00
2023-04-10T01:20:41.301Z,94.70
2023-04-10T01:23:32.543Z,101.33
2023-04-10T01:26:01.197Z,99.53
2023-04-10T01:28:44.569Z,103.07
2023-04-10T01:31:15.595Z,103.03
2023-04-10T01:33:47.712Z,93.63
2023-04-10T01:36:21.889Z,96.37
2023-04-10T01:38:50.907Z,99.97
2023-04-10T01:41:19.971Z,95.50
2023-04-10T01:43:50.648Z,99.03
2023-04-10T01:46:20.573Z,94.43
2023-04-10T01:48:48.621Z,90.53
2023-04-10T01:51:17.091Z,100.73
2023-04-10T01:53:46.057Z,101.77
2023-04-10T01:56:14.195Z,92.63
2023-04-10T01:58:42.107Z,98.53
2023-04-10T02:01:22.515Z,96.63
2023-04-10T02:03:56.904Z,92.60
2023-04-10T02:06:31.988Z,94.33
2023-04-10T02:09:03.885Z,90.20
2023-04-10T02:11:37.129Z,91.17
2023-04-10T02:14:07.051Z,90.93
2023-04-10T02:16:37.921Z,84.87
2023-04-10T02:19:06.964Z,94.60
2023-04-10T02:21:35.221Z,89.13
2023-04-10T02:24:02.906Z,94.47
2023-04-10T02:26:30.765Z,97.87
2023-04-10T02:28:58.432Z,92.10
2023-04-10T02:31:26.144Z,91.70
2023-04-10T02:33:55.512Z,88.47
2023-04-10T02:36:23.336Z,89.53
2023-04-10T02:38:51.117Z,87.40
2023-04-10T02:41:18.831Z,94.67
2023-04-10T02:43:46.577Z,89.77
2023-04-10T02:46:14.238Z,90.90
2023-04-10T02:48:41.985Z,87.90
2023-04-10T02:51:11.043Z,84.60
2023-04-10T02:53:38.766Z,88.97
2023-04-10T02:56:08.137Z,83.43
2023-04-10T02:58:36.123Z,84.83
2023-04-10T03:01:04.046Z,78.93
2023-04-10T03:03:31.811Z,76.20
2023-04-10T03:05:59.586Z,79.20
2023-04-10T03:08:30.184Z,89.03
2023-04-10T03:10:57.897Z,83.93
2023-04-10T03:13:26.037Z,81.10
2023-04-10T03:15:53.849Z,81.97
2023-04-10T03:18:21.547Z,81.13
2023-04-10T03:20:49.960Z,78.70
2023-04-10T03:23:17.696Z,79.77
2023-04-10T03:25:50.931Z,81.63
2023-04-10T03:28:18.695Z,83.37
2023-04-10T03:30:46.450Z,83.10
2023-04-10T03:33:14.198Z,80.53
2023-04-10T03:35:42.056Z,75.53
2023-04-10T03:38:09.861Z,76.07
2023-04-10T03:40:37.770Z,78.87
2023-04-10T03:43:06.877Z,77.83
2023-04-10T03:45:34.660Z,78.67
2023-04-10T03:48:02.389Z,71.47
2023-04-10T03:50:30.498Z,69.10
2023-04-10T03:52:58.230Z,72.47
2023-04-10T03:55:25.921Z,74.77
2023-04-10T03:57:53.677Z,74.77
2023-04-10T04:00:22.851Z,70.63
2023-04-10T04:02:51.912Z,72.67
2023-04-10T04:05:20.043Z,76.07
2023-04-10T04:07:48.122Z,73.10
2023-04-10T04:10:15.986Z,79.33
2023-04-10T04:12:43.778Z,73.37
2023-04-10T04:15:12.090Z,76.53
2023-04-10T04:17:41.215Z,73.40
2023-04-10T04:20:09.988Z,75.63
2023-04-10T04:22:37.674Z,72.43
2023-04-10T04:25:08.912Z,78.87
2023-04-10T04:27:36.680Z,76.63
2023-04-10T04:30:04.707Z,77.47
2023-04-10T04:32:32.501Z,74.93
2023-04-10T04:35:01.623Z,84.50
2023-04-10T04:37:29.434Z,71.70
2023-04-10T04:39:57.080Z,79.90
2023-04-10T04:42:25.021Z,77.57
2023-04-10T04:44:52.918Z,79.23
2023-04-10T04:47:20.647Z,75.50
2023-04-10T04:49:48.424Z,80.17
2023-04-10T04:52:17.482Z,74.07
2023-04-10T04:54:45.460Z,83.23
2023-04-10T04:57:13.135Z,78.33
2023-04-10T04:59:40.821Z,75.70
2023-04-10T05:02:08.569Z,77.30
2023-04-10T05:04:36.326Z,80.40
2023-04-10T05:07:04.003Z,76.67
2023-04-10T05:09:33.029Z,78.60
2023-04-10T05:12:00.739Z,77.80
2023-04-10T05:14:28.426Z,75.80
2023-04-10T05:16:56.219Z,79.03
2023-04-10T05:19:23.926Z,76.40
2023-04-10T05:21:51.624Z,75.40
2023-04-10T05:24:19.290Z,79.13
2023-04-10T05:26:48.550Z,78.47
2023-04-10T05:29:16.248Z,74.67
2023-04-10T05:31:43.974Z,72.67
2023-04-10T05:34:11.839Z,74.23
2023-04-10T05:36:39.518Z,75.43
2023-04-10T05:39:07.177Z,77.03
2023-04-10T05:41:34.974Z,77.27
2023-04-10T05:44:04.056Z,73.90
2023-04-10T05:46:31.877Z,75.97
2023-04-10T05:48:59.680Z,69.93
2023-04-10T05:51:27.373Z,70.37
2023-04-10T05:53:55.199Z,68.93
2023-04-10T05:56:22.899Z,68.40
2023-04-10T05:58:50.654Z,73.87
2023-04-10T06:01:19.759Z,68.00
2023-04-10T06:03:47.792Z,62.93
2023-04-10T06:06:15.843Z,69.40
2023-04-10T06:08:43.518Z,69.53
2023-04-10T06:11:11.439Z,64.23
2023-04-10T06:13:39.194Z,69.30
2023-04-10T06:16:07.688Z,66.53
2023-04-10T06:18:36.898Z,67.73
2023-04-10T06:21:04.890Z,66.97
2023-04-10T06:23:32.629Z,57.67
2023-04-10T06:26:01.375Z,63.27
2023-04-10T06:28:29.050Z,66.27
2023-04-10T06:30:57.549Z,57.87
2023-04-10T06:33:26.394Z,58.70
2023-04-10T06:35:56.057Z,61.27
2023-04-10T06:38:23.803Z,58.10
2023-04-10T06:40:51.540Z,59.67
2023-04-10T06:43:19.252Z,55.37
2023-04-10T06:45:47.063Z,54.90
2023-04-10T06:48:15.141Z,59.33
2023-04-10T06:50:42.929Z,51.87
2023-04-10T06:53:12.103Z,49.40
2023-04-10T06:55:40.024Z,51.17
2023-04-10T06:58:07.730Z,48.13
2023-04-10T07:00:35.500Z,50.47
2023-04-10T07:03:03.231Z,49.33
2023-04-10T07:05:31.112Z,50.10
2023-04-10T07:07:58.811Z,45.70
2023-04-10T07:10:27.930Z,47.27
2023-04-10T07:12:57.220Z,44.43
2023-04-10T07:15:24.889Z,38.07
2023-04-10T07:17:52.828Z,40.60
2023-04-10T07:20:20.698Z,38.60
2023-04-10T07:22:48.463Z,36.07
2023-04-10T07:25:16.622Z,39.10
2023-04-10T07:27:45.690Z,38.83
2023-04-10T07:30:13.971Z,35.30
2023-04-10T07:32:42.379Z,38.20
2023-04-10T07:35:11.036Z,40.70
2023-04-10T07:37:39.757Z,36.13
2023-04-10T07:40:09.063Z,32.67
2023-04-10T07:42:36.922Z,32.13
2023-04-10T07:45:09.710Z,32.47
2023-04-10T07:47:37.444Z,30.00
2023-04-10T07:50:06.443Z,27.03
2023-04-10T07:52:34.133Z,29.13
2023-04-10T07:55:02.761Z,28.30
2023-04-10T07:57:32.170Z,26.53
2023-04-10T08:00:00.034Z,26.67
2023-04-10T08:02:29.305Z,26.13
2023-04-10T08:04:57.957Z,29.07
2023-04-10T08:07:26.000Z,24.87
2023-04-10T08:09:53.869Z,24.47
2023-04-10T08:12:21.625Z,26.23
2023-04-10T08:14:51.712Z,23.90
2023-04-10T08:17:19.672Z,25.83
2023-04-10T08:19:48.756Z,22.03
2023-04-10T08:22:16.568Z,23.70
2023-04-10T08:24:44.498Z,28.43
2023-04-10T08:27:12.363Z,23.60
2023-04-10T08:29:40.058Z,24.43
2023-04-10T08:32:07.764Z,25.07
2023-04-10T08:34:35.540Z,21.97
2023-04-10T08:37:10.589Z,24.63
2023-04-10T08:39:39.805Z,21.10
2023-04-10T08:42:07.780Z,22.07
2023-04-10T08:44:37.164Z,21.20
2023-04-10T08:47:05.150Z,20.87
2023-04-10T08:49:36.394Z,25.47
2023-04-10T08:52:08.103Z,20.77
2023-04-10T08:54:39.464Z,18.40
2023-04-10T08:57:09.811Z,19.70
2023-04-10T08:59:38.658Z,17.03
2023-04-10T09:02:07.407Z,16.97
2023-04-10T09:04:35.557Z,21.27
2023-04-10T09:07:03.356Z,16.87
2023-04-10T09:09:33.250Z,18.30
2023-04-10T09:12:02.634Z,16.27
2023-04-10T09:14:31.837Z,15.10
2023-04-10T09:17:13.081Z,14.93
2023-04-10T09:19:41.020Z,13.43
2023-04-10T09:22:09.008Z,15.57
2023-04-10T09:24:39.107Z,13.87
2023-04-10T09:27:07.231Z,15.47
2023-04-10T09:29:45.887Z,16.23
2023-04-10T09:32:13.757Z,15.83
2023-04-10T09:34:54.896Z,16.33
2023-04-10T09:37:22.849Z,15.27
2023-04-10T09:39:51.879Z,14.77
2023-04-10T09:42:31.411Z,15.93
2023-04-10T09:44:59.568Z,11.77
2023-04-10T09:47:27.418Z,11.23
2023-04-10T09:49:56.477Z,11.90
2023-04-10T09:52:26.388Z,10.23
2023-04-10T09:54:56.382Z,9.80
2023-04-10T09:57:25.936Z,10.17
2023-04-10T09:59:55.048Z,9.60
2023-04-10T10:02:24.097Z,11.07
2023-04-10T10:04:53.275Z,9.73
2023-04-10T10:07:22.375Z,8.83
2023-04-10T10:09:51.687Z,14.13
2023-04-10T10:12:24.938Z,8.33
2023-04-10T10:14:58.831Z,9.03
2023-04-10T10:17:31.581Z,9.37
2023-04-10T10:20:02.796Z,9.57
2023-04-10T10:22:30.643Z,8.73
2023-04-10T10:24:59.955Z,9.00
2023-04-10T10:27:30.036Z,10.00
2023-04-10T10:30:02.869Z,10.13
2023-04-10T10:32:33.324Z,8.40
2023-04-10T10:35:02.287Z,7.60
2023-04-10T10:37:30.644Z,7.93
2023-04-10T10:40:00.701Z,7.47
2023-04-10T10:42:35.724Z,6.83
2023-04-10T10:45:10.440Z,6.53
2023-04-10T10:47:42.081Z,5.87
2023-04-10T10:50:10.434Z,8.67
2023-04-10T10:52:49.716Z,5.80
2023-04-10T10:55:34.890Z,5.83
2023-04-10T10:58:06.202Z,6.40
2023-04-10T11:01:10.095Z,5.87
2023-04-10T11:03:38.590Z,5.57
2023-04-10T11:06:08.461Z,4.87
2023-04-10T11:08:45.837Z,9.07
2023-04-10T11:11:16.670Z,4.17
2023-04-10T11:14:17.973Z,7.23
2023-04-10T11:16:49.547Z,4.43
2023-04-10T11:19:23.680Z,6.07
2023-04-10T11:22:08.966Z,5.77
2023-04-10T11:25:00.047Z,4.90
2023-04-10T11:27:49.599Z,5.10
2023-04-10T11:30:29.380Z,4.83
2023-04-10T11:32:57.434Z,7.23
2023-04-10T11:35:25.286Z,4.93
2023-04-10T11:37:52.993Z,5.87
2023-04-10T11:40:21.181Z,6.03
2023-04-10T11:42:48.890Z,6.50
2023-04-10T11:45:30.871Z,6.17
2023-04-10T11:47:58.639Z,7.30
2023-04-10T11:50:32.237Z,5.73
2023-04-10T11:52:59.926Z,5.57
2023-04-10T11:55:38.337Z,6.20
2023-04-10T11:58:06.697Z,9.07
2023-04-10T12:00:35.761Z,6.13
2023-04-10T12:03:03.662Z,4.23
2023-04-10T12:05:46.671Z,7.97
2023-04-10T12:08:14.410Z,4.70
2023-04-10T12:10:50.987Z,5.80
2023-04-10T12:13:25.968Z,4.60
2023-04-10T12:15:55.316Z,5.07
2023-04-10T12:18:23.621Z,4.47
2023-04-10T12:20:56.201Z,5.77
2023-04-10T12:23:24.584Z,4.67
2023-04-10T12:25:53.200Z,4.80
2023-04-10T12:28:22.229Z,4.87
2023-04-10T12:30:52.791Z,5.40
2023-04-10T12:33:25.914Z,5.17
2023-04-10T12:35:54.298Z,4.63
2023-04-10T12:38:42.007Z,4.33
2023-04-10T12:41:11.203Z,7.40
2023-04-10T12:43:39.964Z,4.90
2023-04-10T12:46:09.439Z,4.53
2023-04-10T12:48:38.548Z,4.67
2023-04-10T12:51:06.523Z,4.23
2023-04-10T12:53:44.625Z,4.37
2023-04-10T12:56:12.432Z,5.83
2023-04-10T12:58:42.401Z,4.90
2023-04-10T13:01:10.680Z,3.97
2023-04-10T13:03:39.958Z,6.50
2023-04-10T13:06:08.592Z,3.43
2023-04-10T13:08:36.491Z,4.27
2023-04-10T13:11:04.198Z,4.57
2023-04-10T13:13:32.806Z,4.97
2023-04-10T13:16:00.768Z,5.47
2023-04-10T13:18:28.564Z,4.43
2023-04-10T13:20:57.635Z,3.57
2023-04-10T13:23:25.284Z,5.83
2023-04-10T13:25:53.549Z,4.03
2023-04-10T13:28:21.560Z,2.87
2023-04-10T13:30:49.255Z,3.53
2023-04-10T13:33:16.979Z,9.30
2023-04-10T13:35:44.708Z,9.43
2023-04-10T13:38:13.760Z,7.50
2023-04-10T13:40:41.421Z,13.50
2023-04-10T13:43:09.101Z,4.93
2023-04-10T13:45:36.803Z,3.97
2023-04-10T13:48:07.212Z,4.47
2023-04-10T13:50:35.206Z,5.13
2023-04-10T13:53:02.985Z,3.83
2023-04-10T13:55:32.098Z,4.50
2023-04-10T13:57:59.826Z,4.87
2023-04-10T14:00:27.742Z,3.77
2023-04-10T14:02:55.615Z,3.33
2023-04-10T14:05:23.509Z,4.07
2023-04-10T14:07:56.788Z,3.67
2023-04-10T14:10:24.494Z,3.37
2023-04-10T14:12:53.569Z,5.53
2023-04-10T14:15:21.287Z,3.33
2023-04-10T14:17:48.986Z,4.27
2023-04-10T14:20:16.711Z,9.10
2023-04-10T14:22:44.350Z,28.97
2023-04-10T14:25:15.713Z,5.10
2023-04-10T14:27:44.044Z,5.03
2023-04-10T14:30:13.796Z,4.90
2023-04-10T14:32:41.659Z,3.07
2023-04-10T14:35:10.633Z,8.23
2023-04-10T14:37:38.523Z,4.33
2023-04-10T14:40:07.498Z,3.60
2023-04-10T14:42:35.191Z,6.50
2023-04-10T14:45:03.104Z,4.67
2023-04-10T14:47:32.216Z,4.40
2023-04-10T14:49:59.961Z,3.53
2023-04-10T14:52:27.675Z,3.90
2023-04-10T14:54:55.421Z,4.23
2023-04-10T14:57:23.054Z,3.40
2023-04-10T14:59:50.762Z,3.43
2023-04-10T15:02:18.505Z,3.00
2023-04-10T15:04:47.682Z,10.30
2023-04-10T15:07:15.403Z,4.53
2023-04-10T15:09:44.463Z,3.83
2023-04-10T15:12:12.087Z,4.13
2023-04-10T15:14:39.829Z,4.70
2023-04-10T15:17:07.608Z,3.60
2023-04-10T15:19:35.480Z,5.57
2023-04-10T15:22:04.704Z,3.37
2023-04-10T15:24:39.896Z,4.03
2023-04-10T15:27:15.095Z,5.73
2023-04-10T15:29:43.967Z,9.60
2023-04-10T15:32:11.642Z,3.03
2023-04-10T15:34:39.330Z,2.90
2023-04-10T15:37:08.343Z,3.37
2023-04-10T15:39:37.110Z,4.57
2023-04-10T15:42:05.252Z,3.40
2023-04-10T15:44:33.003Z,3.23
2023-04-10T15:47:00.846Z,3.97
2023-04-10T15:49:37.057Z,4.57
2023-04-10T15:52:06.213Z,4.20
2023-04-10T15:54:35.868Z,3.10
2023-04-10T15:57:03.821Z,5.30
2023-04-10T15:59:31.837Z,2.90
2023-04-10T16:01:59.713Z,3.37
2023-04-10T16:04:27.591Z,3.37
2023-04-10T16:06:56.449Z,3.40
2023-04-10T16:09:26.401Z,3.23
2023-04-10T16:11:56.317Z,3.60
2023-04-10T16:14:24.081Z,5.20
2023-04-10T16:16:52.023Z,2.70
2023-04-10T16:19:19.819Z,2.87
2023-04-10T16:21:47.491Z,2.60
2023-04-10T16:24:15.469Z,3.60
2023-04-10T16:26:43.180Z,3.67
2023-04-10T16:29:12.202Z,3.63
2023-04-10T16:31:39.947Z,4.10
2023-04-10T16:34:07.655Z,3.33
2023-04-10T16:36:35.395Z,4.20
2023-04-10T16:39:03.118Z,3.33
2023-04-10T16:41:30.902Z,3.23
2023-04-10T16:43:58.566Z,3.20
2023-04-10T16:46:27.805Z,4.77
2023-04-10T16:48:55.659Z,4.57
2023-04-10T16:51:24.348Z,3.90
2023-04-10T16:53:52.110Z,3.97
2023-04-10T16:56:19.908Z,3.90
2023-04-10T16:58:47.588Z,3.83
2023-04-10T17:01:17.776Z,4.50
2023-04-10T17:03:47.537Z,4.33
2023-04-10T17:06:16.002Z,8.07
2023-04-10T17:08:43.951Z,5.03
2023-04-10T17:11:12.529Z,6.83
2023-04-10T17:13:40.542Z,6.50
2023-04-10T17:16:09.411Z,7.23
2023-04-10T17:18:37.569Z,5.13
2023-04-10T17:21:07.444Z,5.87
2023-04-10T17:23:35.218Z,6.17
2023-04-10T17:26:05.605Z,8.03
2023-04-10T17:28:33.809Z,4.93
2023-04-10T17:31:01.794Z,7.30
2023-04-10T17:33:29.630Z,4.17
2023-04-10T17:35:57.491Z,6.70
2023-04-10T17:38:26.693Z,6.63
2023-04-10T17:40:54.339Z,6.40
2023-04-10T17:43:22.606Z,7.23
2023-04-10T17:45:50.355Z,6.10
2023-04-10T17:48:18.424Z,10.47
2023-04-10T17:50:46.278Z,8.80
2023-04-10T17:53:14.026Z,6.23
2023-04-10T17:55:43.066Z,6.97
2023-04-10T17:58:10.793Z,6.37
2023-04-10T18:00:38.670Z,6.87
2023-04-10T18:03:06.447Z,8.37
2023-04-10T18:05:36.728Z,4.33
2023-04-10T18:08:04.466Z,7.20
2023-04-10T18:10:32.147Z,7.87
2023-04-10T18:13:01.278Z,7.37
2023-04-10T18:15:29.521Z,7.00
2023-04-10T18:17:57.313Z,9.23
2023-04-10T18:20:25.078Z,6.23
2023-04-10T18:22:52.837Z,6.40
2023-04-10T18:25:20.490Z,5.50
2023-04-10T18:28:09.772Z,5.27
2023-04-10T18:30:38.976Z,7.03
2023-04-10T18:33:10.709Z,4.50
2023-04-10T18:35:39.034Z,9.50
2023-04-10T18:38:06.797Z,8.13
2023-04-10T18:40:36.614Z,4.97
2023-04-10T18:43:04.307Z,9.07
2023-04-10T18:45:33.903Z,6.77
2023-04-10T18:48:03.030Z,5.67
2023-04-10T18:50:31.778Z,9.50
2023-04-10T18:52:59.432Z,9.30
2023-04-10T18:55:27.160Z,9.20
2023-04-10T18:57:55.117Z,6.80
2023-04-10T19:00:23.111Z,6.87
2023-04-10T19:02:51.023Z,8.70
2023-04-10T19:05:20.130Z,7.23
2023-04-10T19:08:00.622Z,5.93
2023-04-10T19:10:29.042Z,6.50
2023-04-10T19:12:57.368Z,5.80
2023-04-10T19:15:25.873Z,5.10
2023-04-10T19:17:54.129Z,8.13
2023-04-10T19:20:49.796Z,5.50
2023-04-10T19:23:11.768Z,5.57
2023-04-10T19:25:39.562Z,7.40
2023-04-10T19:28:07.489Z,6.87
2023-04-10T19:30:35.341Z,5.47
2023-04-10T19:33:03.071Z,6.77
2023-04-10T19:35:32.319Z,6.50
2023-04-10T19:38:00.138Z,6.10
2023-04-10T19:40:28.036Z,6.67
2023-04-10T19:42:57.455Z,4.97
2023-04-10T19:45:29.113Z,5.33
2023-04-10T19:47:57.431Z,5.40
2023-04-10T19:50:25.363Z,8.93
2023-04-10T19:52:54.385Z,6.10
2023-04-10T19:55:22.312Z,4.50
2023-04-10T19:57:50.654Z,6.33
2023-04-10T20:00:18.790Z,5.47
2023-04-10T20:02:46.645Z,4.97
2023-04-10T20:05:14.783Z,6.60
2023-04-10T20:07:42.574Z,6.57
2023-04-10T20:10:12.325Z,6.27
2023-04-10T20:12:40.030Z,6.27
2023-04-10T20:15:09.287Z,5.73
2023-04-10T20:17:38.490Z,5.70
2023-04-10T20:20:07.301Z,5.20
2023-04-10T20:22:34.974Z,8.37
2023-04-10T20:25:02.644Z,7.60
2023-04-10T20:27:31.660Z,6.40
2023-04-10T20:29:59.348Z,7.30
2023-04-10T20:32:27.029Z,6.27
2023-04-10T20:34:54.731Z,7.43
2023-04-10T20:37:22.873Z,6.53
2023-04-10T20:39:52.238Z,6.77
2023-04-10T20:42:19.978Z,7.27
2023-04-10T20:44:49.287Z,8.70
2023-04-10T20:47:16.987Z,6.83
2023-04-10T20:49:44.635Z,8.03
2023-04-10T20:52:12.375Z,7.20
2023-04-10T20:54:40.080Z,12.17
2023-04-10T20:57:07.948Z,9.80
2023-04-10T20:59:36.660Z,9.87
2023-04-10T21:02:05.934Z,8.70
2023-04-10T21:04:33.739Z,8.53
2023-04-10T21:07:01.518Z,11.10
2023-04-10T21:09:29.275Z,8.10
2023-04-10T21:11:57.684Z,7.57
2023-04-10T21:14:25.346Z,7.50
2023-04-10T21:16:53.050Z,8.67
2023-04-10T21:19:22.134Z,7.90
2023-04-10T21:21:49.871Z,9.00
2023-04-10T21:24:17.609Z,8.33
2023-04-10T21:26:45.785Z,8.53
2023-04-10T21:29:13.533Z,6.80
2023-04-10T21:31:41.335Z,8.50
2023-04-10T21:34:09.131Z,9.00
2023-04-10T21:36:39.029Z,10.30
2023-04-10T21:39:09.211Z,8.77
2023-04-10T21:41:37.315Z,8.63
2023-04-10T21:44:05.040Z,9.03
2023-04-10T21:46:33.158Z,7.23
2023-04-10T21:49:01.190Z,7.33
2023-04-10T21:51:29.121Z,11.63
2023-04-10T21:53:58.169Z,9.43
2023-04-10T21:56:25.934Z,7.20
2023-04-10T21:58:53.891Z,6.17
2023-04-10T22:01:21.863Z,7.83
2023-04-10T22:03:50.604Z,13.53
2023-04-10T22:06:18.608Z,9.80
2023-04-10T22:08:46.945Z,7.67
2023-04-10T22:11:16.007Z,9.60
2023-04-10T22:13:43.747Z,8.87
2023-04-10T22:16:11.475Z,7.23
2023-04-10T22:18:39.278Z,8.50
2023-04-10T22:21:07.447Z,9.17
2023-04-10T22:23:35.148Z,14.83
2023-04-10T22:26:02.830Z,8.80
2023-04-10T22:28:31.892Z,10.37
2023-04-10T22:30:59.699Z,7.90
2023-04-10T22:33:27.577Z,11.57
2023-04-10T22:35:55.379Z,10.93
2023-04-10T22:38:23.129Z,10.00
2023-04-10T22:40:50.862Z,8.97
2023-04-10T22:43:18.634Z,7.50
2023-04-10T22:45:47.909Z,14.00
2023-04-10T22:48:15.711Z,10.30
2023-04-10T22:50:43.503Z,7.37
2023-04-10T22:53:11.685Z,13.57
2023-04-10T22:55:39.407Z,8.43
2023-04-10T22:58:07.346Z,12.03
2023-04-10T23:00:35.346Z,10.23
2023-04-10T23:03:04.733Z,13.43
2023-04-10T23:05:33.023Z,16.27
2023-04-10T23:08:00.831Z,13.97
2023-04-10T23:10:28.572Z,13.07
2023-04-10T23:12:56.346Z,13.03
2023-04-10T23:15:24.085Z,12.63
2023-04-10T23:17:51.828Z,12.77
2023-04-10T23:20:21.001Z,10.77
2023-04-10T23:22:48.675Z,15.30
2023-04-10T23:25:16.502Z,12.90
2023-04-10T23:27:44.313Z,7.57
2023-04-10T23:30:12.573Z,12.20
2023-04-10T23:32:40.374Z,16.63
2023-04-10T23:35:08.530Z,18.53
2023-04-10T23:37:37.743Z,11.30
2023-04-10T23:40:06.168Z,6.97
2023-04-10T23:42:33.815Z,4.00
2023-04-10T23:45:01.585Z,2.43
2023-04-10T23:47:29.345Z,1.50
2023-04-10T23:49:57.111Z,5.47
2023-04-10T23:52:24.794Z,3.70
2023-04-10T23:54:56.517Z,9.10
2023-04-10T23:57:24.397Z,4.40
2023-04-10T23:59:52.265Z,6.10
